Little River, South Carolina
Current Conditions -  °F | °C
As of 1:53 PM on Friday 24 Oct 2014 (Local Time) from KCRE Reporting Station
Clear Clear  
Wind Chill: 66°   Ceiling: Unl
Heat Index: 66°   Visibility: 10mi
Dew Point: 47°   Wind: 0mph
Humidity: 50%   Direction: NA
Pressure: 30"   Gusts: NA
Location:  33.87°N, 78.61°W
Report Text: KCRE 241753Z 00000KT 10SM CLR 19/08 A3000 RMK AO1 SLP160 T01890083 10200 20094 58017
Loading
Personal Weather Stations






























Interactive Weather Map
Tropical Storm Tracking
New forecast layout! Learn more

10-Day Weather Forecast

Advertisements
Track Severe Weather on mobile